Time;durP1;ratioP1;P1;durP2;ratioP2;P2;SDS_P1;SDS_P2;PMS_P1;PMS_P2;Temp;Humidity;BMP_temperature;BMP_pressure;BME280_temperature;BME280_humidity;BME280_pressure;Samples;Min_cycle;Max_cycle;Signal;HPM_P1;HPM_P2
2022/12/27 00:00:43;;;;;;;13.95;9.02;;;5.70;99.90;;;;;;5095893;28;20032;-68
2022/12/27 00:03:09;;;;;;;12.98;8.25;;;5.80;99.90;;;;;;5104795;28;20027;-68
2022/12/27 00:05:34;;;;;;;12.45;8.23;;;5.70;99.90;;;;;;5105055;28;20049;-68
2022/12/27 00:08:00;;;;;;;13.70;7.65;;;5.70;99.90;;;;;;5104881;28;20085;-68
2022/12/27 00:10:26;;;;;;;13.25;8.10;;;5.80;99.90;;;;;;5087858;28;20063;-68
2022/12/27 00:12:52;;;;;;;10.85;7.10;;;5.70;99.90;;;;;;5089035;28;20050;-68
2022/12/27 00:15:18;;;;;;;14.27;7.80;;;5.70;99.90;;;;;;5089755;28;20084;-68
2022/12/27 00:17:44;;;;;;;13.75;7.75;;;5.70;99.90;;;;;;5090965;28;20047;-68
2022/12/27 00:20:10;;;;;;;11.05;7.57;;;5.60;99.90;;;;;;5095158;28;20024;-68
2022/12/27 00:22:35;;;;;;;13.00;7.32;;;5.50;99.90;;;;;;5091969;28;20089;-68
2022/12/27 00:25:01;;;;;;;10.63;8.10;;;5.50;99.90;;;;;;5095805;28;20020;-68
2022/12/27 00:27:27;;;;;;;11.07;7.32;;;5.50;99.90;;;;;;5103702;28;20047;-68
2022/12/27 00:29:53;;;;;;;11.65;7.10;;;5.60;99.90;;;;;;5100975;28;20030;-68
2022/12/27 00:32:19;;;;;;;12.38;7.55;;;5.60;99.90;;;;;;5096251;28;20047;-68
2022/12/27 00:34:45;;;;;;;12.20;6.97;;;5.60;99.90;;;;;;5108425;28;20116;-68
2022/12/27 00:37:11;;;;;;;10.38;7.03;;;5.60;99.90;;;;;;5106473;28;20461;-68
2022/12/27 00:39:36;;;;;;;10.90;6.97;;;5.60;99.90;;;;;;5094222;28;20478;-68
2022/12/27 00:42:02;;;;;;;9.70;6.35;;;5.70;99.90;;;;;;5093738;28;20028;-68
2022/12/27 00:44:28;;;;;;;8.77;6.55;;;5.70;99.90;;;;;;5093763;28;20032;-68
2022/12/27 00:46:53;;;;;;;12.13;7.68;;;5.70;99.90;;;;;;5093725;28;20028;-68
2022/12/27 00:49:19;;;;;;;13.65;8.55;;;5.50;99.90;;;;;;5099005;28;20025;-68
2022/12/27 00:51:45;;;;;;;15.90;9.27;;;5.10;99.90;;;;;;5114172;28;20032;-68
2022/12/27 00:54:10;;;;;;;15.80;9.15;;;5.00;99.90;;;;;;5114146;28;20019;-68
2022/12/27 00:56:36;;;;;;;14.30;9.35;;;5.00;99.90;;;;;;5095799;28;20050;-68
2022/12/27 00:59:03;;;;;;;16.55;10.35;;;4.90;99.90;;;;;;5093485;28;20054;-68
2022/12/27 01:01:32;;;;;;;15.40;9.82;;;4.90;99.90;;;;;;5093671;28;20085;-68
2022/12/27 01:03:58;;;;;;;15.80;8.90;;;4.90;99.90;;;;;;5093828;28;20075;-68
2022/12/27 01:06:27;;;;;;;16.13;9.43;;;4.70;99.90;;;;;;5093653;28;20486;-68
2022/12/27 01:08:54;;;;;;;16.00;9.43;;;4.70;99.90;;;;;;5093689;28;20032;-68
2022/12/27 01:11:19;;;;;;;13.82;8.63;;;4.80;99.90;;;;;;5106855;28;20034;-68
2022/12/27 01:13:46;;;;;;;14.48;8.00;;;4.80;99.90;;;;;;5094952;28;20032;-68
2022/12/27 01:16:15;;;;;;;14.77;7.97;;;4.70;99.90;;;;;;5093423;28;20420;-68
2022/12/27 01:18:41;;;;;;;12.02;7.65;;;4.70;99.90;;;;;;5093575;28;20496;-68
2022/12/27 01:21:08;;;;;;;11.82;7.65;;;4.60;99.90;;;;;;5092568;28;20032;-68
2022/12/27 01:23:35;;;;;;;14.30;8.18;;;4.50;99.90;;;;;;5107053;27;20022;-68
2022/12/27 01:26:04;;;;;;;9.93;6.50;;;4.60;99.90;;;;;;5113182;28;20048;-68
2022/12/27 01:28:30;;;;;;;13.38;8.10;;;4.60;99.90;;;;;;5111820;28;20027;-68
2022/12/27 01:30:55;;;;;;;14.23;8.45;;;4.60;99.90;;;;;;5106118;28;20473;-68
2022/12/27 01:33:21;;;;;;;12.77;8.15;;;4.60;99.90;;;;;;5093280;28;20028;-68
2022/12/27 01:35:47;;;;;;;11.80;6.63;;;4.50;99.90;;;;;;5096369;28;20061;-68
2022/12/27 01:38:13;;;;;;;10.25;7.47;;;4.50;99.90;;;;;;5113256;28;20500;-68
2022/12/27 01:40:39;;;;;;;11.98;7.50;;;4.50;99.90;;;;;;5111413;28;20031;-68
2022/12/27 01:43:05;;;;;;;10.52;6.72;;;4.60;99.90;;;;;;5113504;28;20020;-68
2022/12/27 01:45:35;;;;;;;13.90;7.85;;;4.50;99.90;;;;;;5111369;28;20019;-68
2022/12/27 01:48:01;;;;;;;11.10;6.68;;;4.50;99.90;;;;;;5093033;28;20081;-68
2022/12/27 01:50:33;;;;;;;13.05;6.85;;;4.50;99.90;;;;;;5092593;28;20102;-68
2022/12/27 01:53:05;;;;;;;10.70;7.10;;;4.80;99.90;;;;;;5092603;28;20031;-68
2022/12/27 01:55:49;;;;;;;10.00;5.65;;;4.80;99.90;;;;;;5092056;28;20546;-68
2022/12/27 01:58:35;;;;;;;9.88;6.38;;;4.70;99.90;;;;;;5092784;28;20512;-68
2022/12/27 02:01:03;;;;;;;8.98;5.50;;;4.80;99.90;;;;;;5093253;28;20438;-68
2022/12/27 02:03:39;;;;;;;11.38;6.25;;;4.70;99.90;;;;;;5093013;28;20509;-68
2022/12/27 02:06:08;;;;;;;9.02;5.80;;;4.60;99.90;;;;;;5094532;28;20113;-68
2022/12/27 02:08:52;;;;;;;10.52;6.43;;;4.80;99.90;;;;;;5111975;28;20409;-68
2022/12/27 02:11:49;;;;;;;7.70;5.47;;;5.00;99.90;;;;;;5111262;28;20035;-68
2022/12/27 02:14:08;;;;;;;10.43;6.03;;;5.20;99.90;;;;;;5113124;28;20062;-68
2022/12/27 02:16:34;;;;;;;11.13;6.93;;;5.10;99.90;;;;;;5111323;28;20435;-68
2022/12/27 02:19:00;;;;;;;11.82;6.32;;;5.00;99.90;;;;;;5113018;28;20040;-68
2022/12/27 02:21:25;;;;;;;8.25;5.72;;;4.90;99.90;;;;;;5111171;28;20032;-68
2022/12/27 02:24:03;;;;;;;11.02;5.63;;;4.80;99.90;;;;;;5113285;28;20051;-68
2022/12/27 02:27:01;;;;;;;10.23;6.78;;;4.80;99.90;;;;;;5093784;28;20044;-68
2022/12/27 02:30:01;;;;;;;12.48;6.22;;;4.70;99.90;;;;;;5095021;28;20019;-68
2022/12/27 02:32:36;;;;;;;9.18;5.45;;;4.70;99.90;;;;;;5105282;28;20032;-68
2022/12/27 02:35:06;;;;;;;8.90;5.63;;;4.60;99.90;;;;;;5114712;28;20473;-68
2022/12/27 02:37:36;;;;;;;8.88;5.20;;;4.70;99.90;;;;;;5117033;28;20039;-68
2022/12/27 02:54:39;;;;;;;8.57;5.20;;;4.70;99.90;;;;;;5113151;28;20312;-68
2022/12/27 02:57:21;;;;;;;11.20;6.57;;;4.70;99.90;;;;;;5115088;28;20024;-69
2022/12/27 03:03:35;;;;;;;11.20;7.32;;;4.70;99.90;;;;;;5106494;28;20093;-68
2022/12/27 03:09:06;;;;;;;12.85;6.60;;;4.90;99.90;;;;;;5096075;28;20085;-68
2022/12/27 03:17:25;;;;;;;10.90;6.07;;;4.70;99.90;;;;;;5113528;28;20153;-68
2022/12/27 03:25:28;;;;;;;8.55;5.75;;;4.40;99.90;;;;;;5098238;28;20054;-68
2022/12/27 03:34:34;;;;;;;8.52;4.90;;;4.30;99.90;;;;;;5077681;28;20128;-68
2022/12/27 03:40:39;;;;;;;8.65;5.78;;;4.40;99.90;;;;;;5113978;28;20046;-68
2022/12/27 03:43:11;;;;;;;10.23;6.40;;;4.60;99.90;;;;;;5095352;28;20027;-68
2022/12/27 03:48:25;;;;;;;11.10;7.07;;;4.40;99.90;;;;;;5115798;28;20097;-68
2022/12/27 03:51:03;;;;;;;12.65;7.38;;;4.20;99.90;;;;;;5113222;28;20106;-68
2022/12/27 03:53:40;;;;;;;9.02;5.85;;;4.10;99.90;;;;;;5115721;28;20023;-68
2022/12/27 03:56:07;;;;;;;8.43;5.47;;;4.00;99.90;;;;;;5109607;28;20036;-68
2022/12/27 03:58:32;;;;;;;12.77;6.43;;;4.30;99.90;;;;;;5095151;28;20470;-68
2022/12/27 04:00:59;;;;;;;10.82;6.05;;;4.80;99.90;;;;;;5099142;28;20058;-67
2022/12/27 04:03:24;;;;;;;9.32;6.47;;;5.00;99.90;;;;;;5102951;28;20031;-67
2022/12/27 04:05:50;;;;;;;11.30;6.70;;;5.00;99.90;;;;;;5093640;28;20057;-67
2022/12/27 04:35:38;;;;;;;11.10;5.88;;;4.40;99.90;;;;;;5107590;28;20397;-67
2022/12/27 04:38:04;;;;;;;10.65;6.20;;;4.40;99.90;;;;;;5109066;28;20088;-66
2022/12/27 04:57:17;;;;;;;12.48;6.53;;;5.30;99.90;;;;;;5106054;28;20042;-67
2022/12/27 05:02:27;;;;;;;10.10;5.75;;;5.10;99.90;;;;;;5103570;28;20042;-67
2022/12/27 05:04:52;;;;;;;9.95;5.47;;;5.10;99.90;;;;;;5103167;28;20023;-67
2022/12/27 05:15:32;;;;;;;10.57;6.20;;;4.90;99.90;;;;;;5094247;28;20427;-67
2022/12/27 05:17:57;;;;;;;8.80;5.63;;;4.90;99.90;;;;;;5089959;28;20028;-67
2022/12/27 05:20:23;;;;;;;10.70;6.47;;;4.80;99.90;;;;;;5087063;28;20043;-67
2022/12/27 05:25:33;;;;;;;9.57;6.28;;;4.70;99.90;;;;;;5105258;28;20063;-67
2022/12/27 05:27:59;;;;;;;8.93;5.32;;;4.60;99.90;;;;;;5094130;28;20024;-67
2022/12/27 05:30:25;;;;;;;9.90;5.63;;;4.50;99.90;;;;;;5105315;28;20043;-67
2022/12/27 05:32:57;;;;;;;8.57;4.82;;;4.70;99.90;;;;;;5105284;28;20028;-67
2022/12/27 05:35:22;;;;;;;10.68;6.30;;;4.70;99.90;;;;;;5105144;28;20073;-67
2022/12/27 05:37:48;;;;;;;8.35;6.00;;;4.60;99.90;;;;;;5104906;28;20024;-67
2022/12/27 05:40:14;;;;;;;11.45;7.13;;;4.40;99.90;;;;;;5104900;28;20039;-67
2022/12/27 05:42:39;;;;;;;10.95;6.65;;;4.30;99.90;;;;;;5104866;28;20059;-67
2022/12/27 05:45:06;;;;;;;10.93;7.05;;;4.20;99.90;;;;;;5091547;28;20031;-67
2022/12/27 05:47:32;;;;;;;9.60;6.07;;;4.30;99.90;;;;;;5084415;28;20024;-67
2022/12/27 05:49:57;;;;;;;10.80;6.18;;;4.40;99.90;;;;;;5084130;28;20036;-67
2022/12/27 05:52:23;;;;;;;10.45;6.50;;;4.20;99.90;;;;;;5084372;28;20020;-67
2022/12/27 05:54:49;;;;;;;11.15;5.60;;;4.20;99.90;;;;;;5084719;28;20030;-67
2022/12/27 05:57:15;;;;;;;8.43;4.95;;;4.30;99.90;;;;;;5096493;28;20028;-67
2022/12/27 05:59:40;;;;;;;9.23;5.78;;;4.40;99.90;;;;;;5094538;28;20040;-67
2022/12/27 06:02:06;;;;;;;7.63;4.75;;;4.50;99.90;;;;;;5086414;28;20024;-67
2022/12/27 06:04:32;;;;;;;9.13;4.75;;;4.60;99.90;;;;;;5093318;28;20474;-67
2022/12/27 06:06:58;;;;;;;8.35;4.70;;;4.70;99.90;;;;;;5105514;28;20030;-67
2022/12/27 06:09:24;;;;;;;6.63;4.30;;;4.70;99.90;;;;;;5090385;28;20115;-67
2022/12/27 06:11:50;;;;;;;8.43;4.25;;;4.80;99.90;;;;;;5082992;28;20023;-67
2022/12/27 06:14:15;;;;;;;7.10;4.20;;;5.00;99.90;;;;;;5095102;28;20125;-67
2022/12/27 06:16:41;;;;;;;10.80;4.35;;;4.90;99.90;;;;;;5109051;28;20023;-67
2022/12/27 06:19:07;;;;;;;8.05;5.18;;;5.00;99.90;;;;;;5092887;28;20043;-67
2022/12/27 06:21:32;;;;;;;6.32;4.43;;;5.00;99.90;;;;;;5088016;28;20035;-67
2022/12/27 06:23:58;;;;;;;10.57;7.18;;;5.00;99.90;;;;;;5088354;28;20458;-67
2022/12/27 06:26:25;;;;;;;15.95;8.38;;;4.80;99.90;;;;;;5088443;28;20048;-66
2022/12/27 06:28:53;;;;;;;12.02;6.63;;;4.20;99.90;;;;;;5087898;28;20035;-66
2022/12/27 06:31:19;;;;;;;10.02;5.90;;;4.10;99.90;;;;;;5102400;28;20028;-67
2022/12/27 06:33:46;;;;;;;9.50;5.20;;;4.20;99.90;;;;;;5090492;28;20036;-67
2022/12/27 06:36:14;;;;;;;7.60;5.13;;;4.40;99.90;;;;;;5093263;28;20161;-67
2022/12/27 06:38:40;;;;;;;10.10;5.13;;;4.50;99.90;;;;;;5096104;27;20040;-67
2022/12/27 06:41:12;;;;;;;10.98;5.25;;;4.30;99.90;;;;;;5087849;28;20020;-67
2022/12/27 06:43:37;;;;;;;7.30;4.63;;;4.50;99.90;;;;;;5107662;28;20532;-67
2022/12/27 06:46:06;;;;;;;11.30;4.95;;;4.30;99.90;;;;;;5108317;28;20020;-67
2022/12/27 06:48:32;;;;;;;8.95;4.63;;;4.30;99.90;;;;;;5107811;28;20072;-68
2022/12/27 06:50:57;;;;;;;7.70;4.43;;;4.70;99.90;;;;;;5107876;27;20039;-67
2022/12/27 06:53:23;;;;;;;7.22;3.67;;;5.00;99.90;;;;;;5092080;28;20618;-67
2022/12/27 06:55:49;;;;;;;7.88;4.47;;;5.20;99.90;;;;;;5107480;28;20527;-67
2022/12/27 06:58:15;;;;;;;8.98;4.32;;;5.20;99.90;;;;;;5108111;27;20031;-67
2022/12/27 07:00:41;;;;;;;8.02;4.75;;;4.90;99.90;;;;;;5107814;28;20067;-67
2022/12/27 07:03:07;;;;;;;9.45;4.82;;;4.80;99.90;;;;;;5108421;28;20459;-67
2022/12/27 07:05:36;;;;;;;8.07;5.22;;;4.60;99.90;;;;;;5107747;28;20107;-67
2022/12/27 07:08:02;;;;;;;8.20;4.68;;;4.50;99.90;;;;;;5108004;27;20435;-67
2022/12/27 07:10:28;;;;;;;15.02;5.47;;;4.50;99.90;;;;;;5091469;28;20031;-67
2022/12/27 07:12:55;;;;;;;9.18;4.13;;;4.50;99.90;;;;;;5087483;28;20020;-67
2022/12/27 07:15:21;;;;;;;7.20;4.18;;;4.40;99.90;;;;;;5087273;28;20066;-67
2022/12/27 07:17:46;;;;;;;6.90;4.63;;;4.50;99.90;;;;;;5086859;28;20494;-67
2022/12/27 07:20:12;;;;;;;7.63;4.00;;;4.60;99.90;;;;;;5087246;28;20470;-68
2022/12/27 07:22:38;;;;;;;8.25;4.40;;;4.70;99.90;;;;;;5090792;28;20028;-67
2022/12/27 07:25:04;;;;;;;6.95;3.90;;;4.60;99.90;;;;;;5087262;28;20249;-67
2022/12/27 07:27:33;;;;;;;8.32;4.82;;;4.90;99.90;;;;;;5103465;28;20475;-67
2022/12/27 07:29:58;;;;;;;7.22;3.92;;;5.00;99.90;;;;;;5108231;28;20073;-67
2022/12/27 07:32:24;;;;;;;7.95;4.65;;;5.00;99.90;;;;;;5108896;28;20036;-67
2022/12/27 07:34:50;;;;;;;9.35;4.32;;;4.70;99.90;;;;;;5110573;28;20208;-67
2022/12/27 07:37:16;;;;;;;8.75;4.43;;;4.50;99.90;;;;;;5096800;28;20020;-67
2022/12/27 07:39:42;;;;;;;8.50;5.65;;;4.50;99.90;;;;;;5100370;28;20498;-67
2022/12/27 07:42:08;;;;;;;9.50;5.05;;;4.40;99.90;;;;;;5090090;28;20028;-67
2022/12/27 07:44:34;;;;;;;8.35;3.90;;;4.60;99.90;;;;;;5089775;28;20024;-67
2022/12/27 07:46:59;;;;;;;5.80;3.58;;;4.70;99.90;;;;;;5089823;28;20035;-67
2022/12/27 07:49:25;;;;;;;7.78;4.47;;;4.80;99.90;;;;;;5090000;28;20420;-67
2022/12/27 07:51:51;;;;;;;7.03;4.22;;;4.90;99.90;;;;;;5089808;28;20028;-67
2022/12/27 07:54:16;;;;;;;6.93;4.50;;;4.90;99.90;;;;;;5089901;28;20028;-67
2022/12/27 07:56:42;;;;;;;8.50;4.53;;;4.80;99.90;;;;;;5089657;28;20063;-67
2022/12/27 07:59:12;;;;;;;6.63;5.10;;;4.80;99.90;;;;;;5089267;28;20043;-67
2022/12/27 08:02:02;;;;;;;9.65;5.93;;;4.80;99.90;;;;;;5106036;28;20065;-67
2022/12/27 08:04:24;;;;;;;10.85;5.32;;;4.40;99.90;;;;;;5109343;28;20116;-67
2022/12/27 08:06:49;;;;;;;7.20;4.47;;;3.90;99.90;;;;;;5109747;27;20111;-67
2022/12/27 08:09:27;;;;;;;6.93;4.18;;;4.20;99.90;;;;;;5109778;28;20032;-67
2022/12/27 08:11:52;;;;;;;9.90;5.93;;;4.70;99.90;;;;;;5108465;27;20031;-67
2022/12/27 08:14:18;;;;;;;15.75;7.65;;;4.50;99.90;;;;;;5094349;28;20055;-67
2022/12/27 08:16:44;;;;;;;11.60;7.05;;;4.20;99.90;;;;;;5090133;28;20024;-67
2022/12/27 08:19:10;;;;;;;10.65;6.57;;;4.00;99.90;;;;;;5097164;28;20052;-67
2022/12/27 08:21:35;;;;;;;9.00;5.95;;;4.00;99.90;;;;;;5091532;28;20067;-67
2022/12/27 08:24:01;;;;;;;9.88;6.05;;;4.00;99.90;;;;;;5089492;28;20024;-67
2022/12/27 08:26:27;;;;;;;9.73;5.97;;;4.10;99.90;;;;;;5096496;28;20040;-67
2022/12/27 08:28:52;;;;;;;9.50;5.95;;;4.10;99.90;;;;;;5089197;28;20032;-67
2022/12/27 08:31:18;;;;;;;8.38;5.60;;;4.10;99.90;;;;;;5088356;28;20028;-67
2022/12/27 08:33:44;;;;;;;8.73;5.45;;;4.10;99.90;;;;;;5088897;28;20075;-67
2022/12/27 08:36:11;;;;;;;10.30;6.03;;;4.00;99.90;;;;;;5089059;28;20051;-67
2022/12/27 08:38:37;;;;;;;9.90;5.93;;;4.00;99.90;;;;;;5092423;27;20481;-67
2022/12/27 08:41:03;;;;;;;9.10;5.68;;;4.00;99.90;;;;;;5104039;28;20111;-67
2022/12/27 08:43:29;;;;;;;9.00;5.38;;;4.10;99.90;;;;;;5108898;28;20439;-67
2022/12/27 08:46:03;;;;;;;9.93;6.03;;;4.20;99.90;;;;;;5109142;28;20035;-67
2022/12/27 08:48:31;;;;;;;9.50;5.68;;;4.20;99.90;;;;;;5109121;28;20080;-67
2022/12/27 08:50:57;;;;;;;8.70;5.40;;;4.40;99.90;;;;;;5105583;28;20478;-67
2022/12/27 08:53:22;;;;;;;9.52;5.35;;;4.30;99.90;;;;;;5088561;28;20088;-67
2022/12/27 08:55:48;;;;;;;10.35;5.43;;;4.30;99.90;;;;;;5093096;28;20027;-67
2022/12/27 08:58:14;;;;;;;11.02;6.00;;;4.40;99.90;;;;;;5108673;28;20055;-67
2022/12/27 09:00:39;;;;;;;10.07;6.45;;;4.30;99.90;;;;;;5108470;28;20027;-67
2022/12/27 09:03:05;;;;;;;11.77;6.65;;;4.20;99.90;;;;;;5097602;28;20028;-67
2022/12/27 09:05:31;;;;;;;12.45;7.07;;;4.20;99.90;;;;;;5087411;28;20028;-67
2022/12/27 09:07:57;;;;;;;10.30;6.13;;;4.10;99.90;;;;;;5088070;28;20485;-67
2022/12/27 09:10:23;;;;;;;10.10;6.30;;;4.10;99.90;;;;;;5102491;28;20032;-67
2022/12/27 09:12:49;;;;;;;10.73;5.30;;;4.10;99.90;;;;;;5090670;28;20036;-67
2022/12/27 09:15:15;;;;;;;10.85;6.90;;;4.30;99.90;;;;;;5087538;28;20035;-67
2022/12/27 09:17:41;;;;;;;15.05;9.63;;;4.40;99.90;;;;;;5088012;28;20039;-67
2022/12/27 09:20:07;;;;;;;11.77;6.65;;;4.20;99.90;;;;;;5088163;28;20335;-67
2022/12/27 09:22:33;;;;;;;10.05;6.78;;;4.40;99.90;;;;;;5090467;28;20028;-67
2022/12/27 09:24:59;;;;;;;9.35;4.80;;;4.50;99.90;;;;;;5094677;28;20465;-67
2022/12/27 09:27:24;;;;;;;10.52;6.63;;;4.60;99.90;;;;;;5103955;28;20024;-67
2022/12/27 09:29:51;;;;;;;12.13;8.70;;;4.60;99.90;;;;;;5105197;28;20115;-67
2022/12/27 09:32:16;;;;;;;9.73;6.20;;;4.60;99.90;;;;;;5089109;28;20108;-67
2022/12/27 09:34:42;;;;;;;8.25;4.75;;;4.60;99.90;;;;;;5105180;28;20169;-67
2022/12/27 09:37:08;;;;;;;8.27;4.55;;;4.80;99.90;;;;;;5103221;28;20028;-68
2022/12/27 09:39:33;;;;;;;7.93;5.05;;;5.20;99.90;;;;;;5097151;28;20043;-67
2022/12/27 09:41:59;;;;;;;9.25;5.72;;;5.40;99.90;;;;;;5104979;27;20559;-67
2022/12/27 09:44:38;;;;;;;11.07;6.18;;;5.20;99.90;;;;;;5088966;28;20028;-68
2022/12/27 09:47:29;;;;;;;8.88;6.28;;;5.20;99.90;;;;;;5087130;28;20051;-67
2022/12/27 09:50:09;;;;;;;8.45;5.47;;;5.10;99.90;;;;;;5087016;28;20461;-68
2022/12/27 09:52:59;;;;;;;12.75;6.97;;;5.30;99.90;;;;;;5088796;28;20416;-68
2022/12/27 09:55:48;;;;;;;11.15;6.20;;;5.10;99.90;;;;;;5097951;28;20115;-68
2022/12/27 09:58:33;;;;;;;9.50;5.65;;;5.00;99.90;;;;;;5086472;28;20505;-68
2022/12/27 10:00:59;;;;;;;7.40;4.43;;;5.20;99.90;;;;;;5087606;28;20420;-67
2022/12/27 10:03:27;;;;;;;6.90;3.70;;;5.60;99.90;;;;;;5088777;28;20062;-67
2022/12/27 10:06:13;;;;;;;9.90;6.60;;;6.00;99.90;;;;;;5087735;28;20036;-68
2022/12/27 10:08:49;;;;;;;10.00;5.70;;;5.70;99.90;;;;;;5087966;28;20038;-67
2022/12/27 10:11:44;;;;;;;8.23;5.60;;;5.30;99.90;;;;;;5094285;28;20069;-67
2022/12/27 10:14:17;;;;;;;9.27;6.45;;;5.60;99.90;;;;;;5087642;28;20509;-67
2022/12/27 10:16:52;;;;;;;8.32;5.03;;;5.50;99.90;;;;;;5087777;28;20555;-67
2022/12/27 10:19:54;;;;;;;8.63;4.10;;;5.60;99.90;;;;;;5087324;28;20477;-67
2022/12/27 10:22:23;;;;;;;7.30;3.58;;;6.00;99.90;;;;;;5098172;28;20028;-67
2022/12/27 10:24:55;;;;;;;6.63;3.70;;;6.30;99.90;;;;;;5091460;28;20031;-67
2022/12/27 10:27:27;;;;;;;8.82;5.00;;;6.30;99.90;;;;;;5089780;28;20040;-67
2022/12/27 10:29:55;;;;;;;10.35;6.53;;;6.00;99.90;;;;;;5087436;28;20021;-67
2022/12/27 10:32:21;;;;;;;9.32;4.97;;;5.80;99.90;;;;;;5089852;28;20392;-67
2022/12/27 10:35:00;;;;;;;7.70;4.68;;;5.80;99.90;;;;;;5086810;28;20078;-67
2022/12/27 10:37:26;;;;;;;9.45;4.05;;;5.90;99.90;;;;;;5086491;28;20020;-67
2022/12/27 10:39:52;;;;;;;6.88;4.18;;;5.90;99.90;;;;;;5086851;28;20181;-67
2022/12/27 10:42:23;;;;;;;10.43;6.13;;;6.00;99.90;;;;;;5087629;28;20470;-67
2022/12/27 10:44:49;;;;;;;11.73;6.80;;;5.60;99.90;;;;;;5086693;28;20486;-67
2022/12/27 10:47:15;;;;;;;13.55;7.60;;;5.40;99.90;;;;;;5097286;28;20027;-67
2022/12/27 10:49:59;;;;;;;10.95;6.68;;;5.50;99.90;;;;;;5095879;28;20524;-67
2022/12/27 10:52:29;;;;;;;14.95;6.80;;;5.50;99.90;;;;;;5096741;28;20072;-67
2022/12/27 10:54:57;;;;;;;12.52;6.75;;;5.60;99.90;;;;;;5096789;28;20387;-67
2022/12/27 10:57:28;;;;;;;14.13;6.57;;;5.80;99.90;;;;;;5090482;28;20106;-68
2022/12/27 11:00:12;;;;;;;8.55;5.10;;;6.00;99.90;;;;;;5092099;28;20074;-68
2022/12/27 11:02:55;;;;;;;9.45;5.25;;;6.40;99.90;;;;;;5091453;28;20406;-68
2022/12/27 11:05:23;;;;;;;11.50;6.97;;;6.50;99.90;;;;;;5104483;28;20028;-68
2022/12/27 11:07:49;;;;;;;13.15;7.10;;;6.40;99.90;;;;;;5099720;28;20038;-68
2022/12/27 11:10:19;;;;;;;10.90;6.72;;;6.50;99.90;;;;;;5090680;28;20106;-68
2022/12/27 11:12:58;;;;;;;11.85;6.85;;;6.40;99.90;;;;;;5090738;28;20032;-68
2022/12/27 11:15:25;;;;;;;13.02;7.00;;;6.30;99.90;;;;;;5089443;28;20032;-68
2022/12/27 11:18:09;;;;;;;14.90;7.05;;;6.40;99.90;;;;;;5090445;28;20036;-68
2022/12/27 11:20:43;;;;;;;22.35;8.38;;;6.50;99.90;;;;;;5090454;28;20107;-68
2022/12/27 11:23:09;;;;;;;11.60;6.93;;;6.60;99.90;;;;;;5096341;28;20024;-68
2022/12/27 11:25:51;;;;;;;14.32;7.18;;;6.70;99.90;;;;;;5098840;28;20036;-68
2022/12/27 11:28:38;;;;;;;10.63;7.15;;;6.90;99.90;;;;;;5097690;28;20024;-69
2022/12/27 11:31:27;;;;;;;11.02;7.15;;;7.00;99.90;;;;;;5110950;28;20024;-68
2022/12/27 11:33:56;;;;;;;15.68;8.13;;;7.30;99.90;;;;;;5094567;28;20603;-68
2022/12/27 11:36:23;;;;;;;10.48;6.47;;;7.40;99.90;;;;;;5089338;28;20059;-69
2022/12/27 11:38:49;;;;;;;11.07;6.00;;;7.50;99.90;;;;;;5093819;28;20048;-69
2022/12/27 11:41:22;;;;;;;10.35;7.03;;;7.50;99.90;;;;;;5100582;28;20423;-68
2022/12/27 11:44:07;;;;;;;13.70;7.50;;;7.60;99.90;;;;;;5094773;28;20200;-68
2022/12/27 11:46:47;;;;;;;11.05;6.13;;;7.70;99.90;;;;;;5092926;28;20409;-68
2022/12/27 11:49:22;;;;;;;10.68;6.18;;;7.90;99.90;;;;;;5103035;28;20528;-68
2022/12/27 11:52:09;;;;;;;12.98;6.28;;;7.90;99.90;;;;;;5091132;28;20088;-67
2022/12/27 11:55:14;;;;;;;10.68;6.47;;;7.90;99.90;;;;;;5098674;28;20036;-67
2022/12/27 11:58:26;;;;;;;12.93;7.13;;;8.10;99.90;;;;;;5092077;28;20035;-68
2022/12/27 12:01:29;;;;;;;12.25;7.18;;;8.10;99.90;;;;;;5023771;28;20545;-68
2022/12/27 12:04:16;;;;;;;11.98;7.57;;;8.00;99.90;;;;;;5094021;28;20100;-68
2022/12/27 12:07:21;;;;;;;9.65;5.55;;;8.00;99.90;;;;;;5101634;28;20036;-67
2022/12/27 12:10:22;;;;;;;11.48;5.60;;;8.00;99.90;;;;;;5099883;28;20023;-68
2022/12/27 12:12:56;;;;;;;9.73;5.63;;;8.20;99.90;;;;;;5090669;28;20044;-67
2022/12/27 12:15:58;;;;;;;8.55;5.30;;;8.40;99.90;;;;;;5105211;28;20032;-67
2022/12/27 12:18:36;;;;;;;28.23;7.00;;;8.60;99.90;;;;;;5095895;28;20128;-67
2022/12/27 12:21:32;;;;;;;19.52;6.10;;;8.80;99.90;;;;;;5096781;28;20032;-67
2022/12/27 12:24:40;;;;;;;46.50;7.93;;;9.00;99.90;;;;;;5096872;28;20122;-67
2022/12/27 12:27:35;;;;;;;11.43;5.88;;;9.10;99.90;;;;;;5093678;28;20104;-67
2022/12/27 12:30:14;;;;;;;30.13;7.25;;;9.00;99.90;;;;;;5103920;28;20030;-68
2022/12/27 12:33:07;;;;;;;12.25;5.00;;;9.00;99.90;;;;;;5100497;28;20112;-67
2022/12/27 12:35:51;;;;;;;8.68;4.75;;;9.10;99.90;;;;;;5094469;28;20053;-68
2022/12/27 12:38:41;;;;;;;8.70;4.97;;;9.20;99.90;;;;;;5099994;28;20027;-68
2022/12/27 12:41:19;;;;;;;7.05;4.45;;;9.40;99.90;;;;;;5094603;28;20138;-68
2022/12/27 12:43:58;;;;;;;11.38;3.47;;;9.20;99.90;;;;;;5106549;28;20156;-68
2022/12/27 12:46:46;;;;;;;6.47;3.50;;;9.10;99.90;;;;;;5099949;28;20549;-68
2022/12/27 12:49:20;;;;;;;6.55;4.20;;;9.10;99.90;;;;;;5099207;28;20027;-68
2022/12/27 12:52:19;;;;;;;8.98;4.00;;;9.20;99.90;;;;;;5106383;28;20031;-68
2022/12/27 12:55:06;;;;;;;8.10;4.53;;;9.20;99.90;;;;;;5090157;28;20036;-68
2022/12/27 12:57:34;;;;;;;7.22;4.25;;;9.10;99.90;;;;;;5094084;28;20109;-68
2022/12/27 13:00:26;;;;;;;8.45;4.63;;;9.10;99.90;;;;;;5095891;28;20119;-68
2022/12/27 13:03:40;;;;;;;8.13;4.63;;;9.00;99.90;;;;;;5094490;28;20036;-68
2022/12/27 13:06:31;;;;;;;7.13;4.97;;;9.00;99.90;;;;;;5085288;28;20042;-68
2022/12/27 13:09:23;;;;;;;8.30;4.75;;;9.10;99.90;;;;;;5101417;28;20055;-69
2022/12/27 13:12:03;;;;;;;10.40;5.75;;;9.00;99.90;;;;;;5106238;28;20119;-68
2022/12/27 13:15:12;;;;;;;8.38;5.30;;;9.10;99.90;;;;;;5106057;28;20039;-68
2022/12/27 13:17:50;;;;;;;10.88;6.22;;;9.10;99.90;;;;;;5093076;28;20056;-68
2022/12/27 13:20:24;;;;;;;8.55;5.45;;;9.10;99.90;;;;;;5102747;28;20063;-68
2022/12/27 13:23:08;;;;;;;8.32;5.15;;;9.10;99.90;;;;;;5102315;28;20061;-68
2022/12/27 13:25:59;;;;;;;9.07;4.95;;;9.20;99.90;;;;;;5085413;28;20654;-68
2022/12/27 13:28:43;;;;;;;8.88;4.40;;;9.10;99.90;;;;;;5101897;28;20159;-68
2022/12/27 13:31:53;;;;;;;8.77;5.00;;;9.10;99.90;;;;;;5095895;28;20636;-68
2022/12/27 13:34:24;;;;;;;9.07;4.75;;;9.00;99.90;;;;;;5064492;28;20395;-68
2022/12/27 13:37:10;;;;;;;9.52;4.93;;;9.00;99.90;;;;;;5099818;28;20089;-68
2022/12/27 13:39:38;;;;;;;10.25;5.05;;;9.10;99.90;;;;;;5088797;28;20383;-68
2022/12/27 13:42:13;;;;;;;9.15;5.10;;;9.30;99.90;;;;;;5095189;28;20561;-69
2022/12/27 13:45:08;;;;;;;8.73;4.38;;;9.30;99.90;;;;;;5101515;28;20027;-69
2022/12/27 13:48:05;;;;;;;9.55;4.35;;;9.30;99.90;;;;;;5089152;28;21629;-70
2022/12/27 13:50:50;;;;;;;9.90;5.28;;;9.30;99.90;;;;;;5073874;28;20856;-69
2022/12/27 13:53:44;;;;;;;9.60;5.30;;;9.40;99.90;;;;;;5087097;28;20031;-69
2022/12/27 13:56:29;;;;;;;9.13;4.75;;;9.40;99.90;;;;;;5100011;28;20046;-69
2022/12/27 13:59:21;;;;;;;7.65;4.63;;;9.40;99.90;;;;;;5102972;28;20035;-69
2022/12/27 14:01:53;;;;;;;9.55;5.00;;;9.50;99.90;;;;;;5095912;28;20034;-69
2022/12/27 14:04:37;;;;;;;9.68;4.95;;;9.40;99.90;;;;;;5099968;28;20031;-69
2022/12/27 14:07:23;;;;;;;8.90;5.18;;;9.30;99.90;;;;;;5104859;28;20057;-69
2022/12/27 14:10:08;;;;;;;8.13;5.72;;;9.20;99.90;;;;;;5103469;28;20031;-69
2022/12/27 14:12:53;;;;;;;7.88;5.10;;;9.20;99.90;;;;;;5086382;28;20082;-69
2022/12/27 14:15:27;;;;;;;10.55;6.10;;;9.20;99.90;;;;;;5085100;28;20085;-69
2022/12/27 14:18:23;;;;;;;8.80;5.18;;;9.30;99.90;;;;;;5104983;28;20038;-69
2022/12/27 14:21:11;;;;;;;11.15;5.88;;;9.40;99.90;;;;;;5101982;28;20046;-69
2022/12/27 14:23:51;;;;;;;11.25;6.18;;;9.30;99.90;;;;;;5093525;28;20028;-69
2022/12/27 14:26:53;;;;;;;11.77;6.00;;;9.30;99.90;;;;;;5085999;28;20098;-69
2022/12/27 14:29:44;;;;;;;8.23;5.15;;;9.30;99.90;;;;;;5093166;28;20035;-69
2022/12/27 14:32:28;;;;;;;9.20;5.05;;;9.40;99.90;;;;;;5093373;28;20034;-69
2022/12/27 14:35:24;;;;;;;10.02;4.97;;;9.50;99.90;;;;;;5106188;28;20124;-69
2022/12/27 14:37:50;;;;;;;8.75;4.30;;;9.40;99.90;;;;;;5095861;28;20387;-69
2022/12/27 14:40:45;;;;;;;8.73;5.03;;;9.30;99.90;;;;;;5099380;28;20043;-69
2022/12/27 14:43:23;;;;;;;9.32;4.30;;;9.20;99.90;;;;;;5096730;28;20024;-69
2022/12/27 14:46:15;;;;;;;8.05;4.43;;;9.10;99.90;;;;;;5107526;28;20028;-69
2022/12/27 14:49:02;;;;;;;8.75;5.07;;;9.00;99.90;;;;;;5102870;28;20020;-69
2022/12/27 14:52:04;;;;;;;8.25;6.32;;;9.00;99.90;;;;;;5095142;28;20023;-69
2022/12/27 14:55:23;;;;;;;8.93;4.70;;;8.90;99.90;;;;;;5106469;28;20051;-69
2022/12/27 14:58:19;;;;;;;7.22;4.57;;;8.80;99.90;;;;;;5063694;28;20181;-69
2022/12/27 15:01:10;;;;;;;6.78;4.00;;;8.70;99.90;;;;;;5104481;28;20036;-69
2022/12/27 15:03:56;;;;;;;7.93;4.70;;;8.70;99.90;;;;;;5108380;28;20028;-69
2022/12/27 15:06:50;;;;;;;9.77;4.70;;;8.70;99.90;;;;;;5101380;28;20487;-68
2022/12/27 15:09:27;;;;;;;12.15;5.00;;;8.70;99.90;;;;;;5103566;28;20038;-69